sensor_id;sensor_type;location;lat;lon;timestamp;pressure;altitude;pressure_sealevel;temperature;humidity
49585;BME280;35491;49.142;9.210;2023-04-08T00:00:23;100173.72;;;9.67;69.80
49585;BME280;35491;49.142;9.210;2023-04-08T00:01:27;100178.75;;;9.60;70.26
49585;BME280;35491;49.142;9.210;2023-04-08T00:02:28;100177.75;;;9.61;70.17
49585;BME280;35491;49.142;9.210;2023-04-08T00:03:32;100177.91;;;9.60;69.90
49585;BME280;35491;49.142;9.210;2023-04-08T00:04:33;100179.47;;;9.62;69.92
49585;BME280;35491;49.142;9.210;2023-04-08T00:05:37;100176.22;;;9.59;70.33
49585;BME280;35491;49.142;9.210;2023-04-08T00:06:38;100173.28;;;9.62;70.06
49585;BME280;35491;49.142;9.210;2023-04-08T00:07:41;100173.28;;;9.62;69.90
49585;BME280;35491;49.142;9.210;2023-04-08T00:08:43;100175.81;;;9.63;69.74
49585;BME280;35491;49.142;9.210;2023-04-08T00:09:47;100170.88;;;9.59;69.70
49585;BME280;35491;49.142;9.210;2023-04-08T00:10:49;100176.34;;;9.57;70.19
49585;BME280;35491;49.142;9.210;2023-04-08T00:11:53;100174.09;;;9.52;70.51
49585;BME280;35491;49.142;9.210;2023-04-08T00:12:54;100173.81;;;9.56;70.35
49585;BME280;35491;49.142;9.210;2023-04-08T00:14:01;100172.00;;;9.56;69.96
49585;BME280;35491;49.142;9.210;2023-04-08T00:15:02;100176.22;;;9.59;69.79
49585;BME280;35491;49.142;9.210;2023-04-08T00:16:06;100174.38;;;9.59;69.60
49585;BME280;35491;49.142;9.210;2023-04-08T00:17:07;100177.75;;;9.61;69.65
49585;BME280;35491;49.142;9.210;2023-04-08T00:18:12;100176.94;;;9.61;69.71
49585;BME280;35491;49.142;9.210;2023-04-08T00:19:13;100174.38;;;9.59;69.20
49585;BME280;35491;49.142;9.210;2023-04-08T00:20:17;100176.47;;;9.56;69.41
49585;BME280;35491;49.142;9.210;2023-04-08T00:21:19;100177.75;;;9.51;69.74
49585;BME280;35491;49.142;9.210;2023-04-08T00:22:23;100179.69;;;9.49;69.63
49585;BME280;35491;49.142;9.210;2023-04-08T00:23:24;100182.63;;;9.46;69.69
49585;BME280;35491;49.142;9.210;2023-04-08T00:24:28;100182.19;;;9.41;69.77
49585;BME280;35491;49.142;9.210;2023-04-08T00:25:29;100178.94;;;9.38;69.70
49585;BME280;35491;49.142;9.210;2023-04-08T00:26:33;100179.06;;;9.36;69.87
49585;BME280;35491;49.142;9.210;2023-04-08T00:27:34;100189.72;;;9.36;69.96
49585;BME280;35491;49.142;9.210;2023-04-08T00:28:38;100178.09;;;9.37;69.84
49585;BME280;35491;49.142;9.210;2023-04-08T00:29:41;100183.72;;;9.34;70.04
49585;BME280;35491;49.142;9.210;2023-04-08T00:30:46;100178.22;;;9.35;70.29
49585;BME280;35491;49.142;9.210;2023-04-08T00:31:47;100182.75;;;9.35;70.05
49585;BME280;35491;49.142;9.210;2023-04-08T00:32:51;100179.06;;;9.36;70.17
49585;BME280;35491;49.142;9.210;2023-04-08T00:33:52;100181.88;;;9.34;70.12
49585;BME280;35491;49.142;9.210;2023-04-08T00:34:56;100178.09;;;9.37;69.94
49585;BME280;35491;49.142;9.210;2023-04-08T00:35:57;100178.81;;;9.39;69.91
49585;BME280;35491;49.142;9.210;2023-04-08T00:37:01;100182.34;;;9.40;69.92
49585;BME280;35491;49.142;9.210;2023-04-08T00:38:02;100181.34;;;9.41;69.87
49585;BME280;35491;49.142;9.210;2023-04-08T00:39:07;100181.06;;;9.44;69.96
49585;BME280;35491;49.142;9.210;2023-04-08T00:40:08;100177.03;;;9.49;69.74
49585;BME280;35491;49.142;9.210;2023-04-08T00:41:12;100183.09;;;9.51;69.48
49585;BME280;35491;49.142;9.210;2023-04-08T00:42:13;100190.94;;;9.53;69.23
49585;BME280;35491;49.142;9.210;2023-04-08T00:43:17;100182.66;;;9.56;69.35
49585;BME280;35491;49.142;9.210;2023-04-08T00:44:20;100181.56;;;9.59;69.39
49585;BME280;35491;49.142;9.210;2023-04-08T00:45:27;100183.38;;;9.58;69.12
49585;BME280;35491;49.142;9.210;2023-04-08T00:46:28;100179.53;;;9.51;69.38
49585;BME280;35491;49.142;9.210;2023-04-08T00:47:31;100187.28;;;9.54;69.23
49585;BME280;35491;49.142;9.210;2023-04-08T00:48:33;100182.78;;;9.55;69.35
49585;BME280;35491;49.142;9.210;2023-04-08T00:49:49;100179.84;;;9.58;69.03
49585;BME280;35491;49.142;9.210;2023-04-08T00:50:53;100189.00;;;9.55;69.00
49585;BME280;35491;49.142;9.210;2023-04-08T00:51:54;100184.63;;;9.54;69.31
49585;BME280;35491;49.142;9.210;2023-04-08T00:52:57;100192.78;;;9.52;68.87
49585;BME280;35491;49.142;9.210;2023-04-08T00:53:59;100190.09;;;9.52;68.88
49585;BME280;35491;49.142;9.210;2023-04-08T00:55:04;100194.59;;;9.52;68.74
49585;BME280;35491;49.142;9.210;2023-04-08T00:56:06;100191.91;;;9.52;69.09
49585;BME280;35491;49.142;9.210;2023-04-08T00:57:09;100188.41;;;9.51;68.93
49585;BME280;35491;49.142;9.210;2023-04-08T00:58:11;100186.25;;;9.45;69.22
49585;BME280;35491;49.142;9.210;2023-04-08T00:59:16;100188.94;;;9.45;69.15
49585;BME280;35491;49.142;9.210;2023-04-08T01:00:17;100196.69;;;9.48;69.07
49585;BME280;35491;49.142;9.210;2023-04-08T01:01:24;100199.03;;;9.42;69.33
49585;BME280;35491;49.142;9.210;2023-04-08T01:02:30;100195.22;;;9.34;69.66
49585;BME280;35491;49.142;9.210;2023-04-08T01:03:38;100196.25;;;9.43;69.23
49585;BME280;35491;49.142;9.210;2023-04-08T01:04:43;100197.88;;;9.34;69.64
49585;BME280;35491;49.142;9.210;2023-04-08T01:05:53;100197.75;;;9.36;69.16
49585;BME280;35491;49.142;9.210;2023-04-08T01:06:58;100201.66;;;9.32;69.23
49585;BME280;35491;49.142;9.210;2023-04-08T01:08:04;100189.44;;;9.29;69.45
49585;BME280;35491;49.142;9.210;2023-04-08T01:09:06;100196.72;;;9.27;69.51
49585;BME280;35491;49.142;9.210;2023-04-08T01:10:11;100198.53;;;9.27;69.31
49585;BME280;35491;49.142;9.210;2023-04-08T01:11:13;100203.19;;;9.25;69.28
49585;BME280;35491;49.142;9.210;2023-04-08T01:12:19;100198.81;;;9.24;69.65
49585;BME280;35491;49.142;9.210;2023-04-08T01:13:22;100198.94;;;9.22;69.70
49585;BME280;35491;49.142;9.210;2023-04-08T01:14:26;100195.19;;;9.25;69.62
49585;BME280;35491;49.142;9.210;2023-04-08T01:15:54;100197.56;;;9.28;69.64
49585;BME280;35491;49.142;9.210;2023-04-08T01:17:01;100199.84;;;9.32;69.43
49585;BME280;35491;49.142;9.210;2023-04-08T01:18:12;100194.38;;;9.34;69.19
49585;BME280;35491;49.142;9.210;2023-04-08T01:19:17;100196.72;;;9.27;69.35
49585;BME280;35491;49.142;9.210;2023-04-08T01:20:21;100202.06;;;9.27;69.49
49585;BME280;35491;49.142;9.210;2023-04-08T01:21:26;100196.59;;;9.29;69.41
49585;BME280;35491;49.142;9.210;2023-04-08T01:22:32;100200.22;;;9.28;69.45
49585;BME280;35491;49.142;9.210;2023-04-08T01:23:40;100198.44;;;9.28;69.29
49585;BME280;35491;49.142;9.210;2023-04-08T01:24:44;100197.56;;;9.28;69.33
49585;BME280;35491;49.142;9.210;2023-04-08T01:25:51;100195.75;;;9.28;69.41
49585;BME280;35491;49.142;9.210;2023-04-08T01:26:53;100193.19;;;9.27;69.36
49585;BME280;35491;49.142;9.210;2023-04-08T01:27:57;100201.31;;;9.15;70.33
49585;BME280;35491;49.142;9.210;2023-04-08T01:29:00;100199.03;;;9.11;70.67
49585;BME280;35491;49.142;9.210;2023-04-08T01:30:06;100192.97;;;9.09;70.86
49585;BME280;35491;49.142;9.210;2023-04-08T01:31:09;100197.16;;;9.01;71.46
49585;BME280;35491;49.142;9.210;2023-04-08T01:32:13;100193.63;;;9.01;71.55
49585;BME280;35491;49.142;9.210;2023-04-08T01:33:16;100193.63;;;9.01;71.40
49585;BME280;35491;49.142;9.210;2023-04-08T01:34:23;100191.09;;;8.99;71.46
49585;BME280;35491;49.142;9.210;2023-04-08T01:35:25;100193.19;;;8.96;71.67
49585;BME280;35491;49.142;9.210;2023-04-08T01:36:29;100187.56;;;8.99;71.54
49585;BME280;35491;49.142;9.210;2023-04-08T01:37:32;100191.22;;;8.98;71.43
49585;BME280;35491;49.142;9.210;2023-04-08T01:38:37;100199.09;;;8.99;71.41
49585;BME280;35491;49.142;9.210;2023-04-08T01:39:40;100203.31;;;9.02;71.55
49585;BME280;35491;49.142;9.210;2023-04-08T01:40:44;100196.44;;;8.99;71.53
49585;BME280;35491;49.142;9.210;2023-04-08T01:41:49;100193.69;;;8.89;72.29
49585;BME280;35491;49.142;9.210;2023-04-08T01:42:57;100201.50;;;8.81;72.84
49585;BME280;35491;49.142;9.210;2023-04-08T01:43:59;100198.09;;;8.79;73.14
49585;BME280;35491;49.142;9.210;2023-04-08T01:45:05;100199.81;;;8.80;72.99
49585;BME280;35491;49.142;9.210;2023-04-08T01:46:07;100198.84;;;8.81;73.31
49585;BME280;35491;49.142;9.210;2023-04-08T01:47:12;100203.34;;;8.81;73.30
49585;BME280;35491;49.142;9.210;2023-04-08T01:48:14;100190.00;;;8.81;73.30
49585;BME280;35491;49.142;9.210;2023-04-08T01:49:18;100196.69;;;8.75;73.65
49585;BME280;35491;49.142;9.210;2023-04-08T01:50:27;100195.34;;;8.81;73.42
49585;BME280;35491;49.142;9.210;2023-04-08T01:51:31;100196.88;;;8.83;72.96
49585;BME280;35491;49.142;9.210;2023-04-08T01:52:33;100200.28;;;8.85;72.94
49585;BME280;35491;49.142;9.210;2023-04-08T01:53:37;100194.81;;;8.87;72.94
49585;BME280;35491;49.142;9.210;2023-04-08T01:54:38;100197.84;;;8.82;73.60
49585;BME280;35491;49.142;9.210;2023-04-08T01:55:42;100196.16;;;8.81;73.66
49585;BME280;35491;49.142;9.210;2023-04-08T01:56:45;100196.44;;;8.78;73.86
49585;BME280;35491;49.142;9.210;2023-04-08T01:57:51;100201.50;;;8.81;73.08
49585;BME280;35491;49.142;9.210;2023-04-08T01:58:53;100192.91;;;8.78;73.45
49585;BME280;35491;49.142;9.210;2023-04-08T01:59:59;100195.44;;;8.79;73.47
49585;BME280;35491;49.142;9.210;2023-04-08T02:01:01;100200.09;;;8.77;73.64
49585;BME280;35491;49.142;9.210;2023-04-08T02:02:05;100202.59;;;8.79;73.58
49585;BME280;35491;49.142;9.210;2023-04-08T02:03:09;100203.97;;;8.73;74.20
49585;BME280;35491;49.142;9.210;2023-04-08T02:04:13;100205.66;;;8.74;73.93
49585;BME280;35491;49.142;9.210;2023-04-08T02:05:15;100198.63;;;8.73;74.21
49585;BME280;35491;49.142;9.210;2023-04-08T02:06:18;100202.03;;;8.75;73.92
49585;BME280;35491;49.142;9.210;2023-04-08T02:07:20;100201.88;;;8.77;73.75
49585;BME280;35491;49.142;9.210;2023-04-08T02:08:24;100204.56;;;8.77;74.01
49585;BME280;35491;49.142;9.210;2023-04-08T02:09:25;100203.13;;;8.72;74.23
49585;BME280;35491;49.142;9.210;2023-04-08T02:10:28;100205.91;;;8.71;74.24
49585;BME280;35491;49.142;9.210;2023-04-08T02:11:32;100200.84;;;8.68;74.48
49585;BME280;35491;49.142;9.210;2023-04-08T02:12:33;100199.16;;;8.67;74.78
49585;BME280;35491;49.142;9.210;2023-04-08T02:13:40;100202.22;;;8.62;75.44
49585;BME280;35491;49.142;9.210;2023-04-08T02:14:41;100207.34;;;8.54;76.15
49585;BME280;35491;49.142;9.210;2023-04-08T02:15:46;100205.41;;;8.45;76.58
49585;BME280;35491;49.142;9.210;2023-04-08T02:16:53;100210.84;;;8.54;75.89
49585;BME280;35491;49.142;9.210;2023-04-08T02:17:59;100201.88;;;8.55;75.68
49585;BME280;35491;49.142;9.210;2023-04-08T02:19:05;100199.34;;;8.54;75.89
49585;BME280;35491;49.142;9.210;2023-04-08T02:20:12;100199.06;;;8.57;75.48
49585;BME280;35491;49.142;9.210;2023-04-08T02:21:17;100201.63;;;8.58;75.23
49585;BME280;35491;49.142;9.210;2023-04-08T02:22:31;100201.63;;;8.58;75.16
49585;BME280;35491;49.142;9.210;2023-04-08T02:23:37;100206.00;;;8.60;74.94
49585;BME280;35491;49.142;9.210;2023-04-08T02:24:41;100202.59;;;8.57;75.49
49585;BME280;35491;49.142;9.210;2023-04-08T02:25:44;100205.13;;;8.59;75.17
49585;BME280;35491;49.142;9.210;2023-04-08T02:26:51;100206.00;;;8.60;75.31
49585;BME280;35491;49.142;9.210;2023-04-08T02:27:55;100208.75;;;8.58;75.15
49585;BME280;35491;49.142;9.210;2023-04-08T02:29:04;100211.44;;;8.58;75.44
49585;BME280;35491;49.142;9.210;2023-04-08T02:30:13;100214.81;;;8.60;75.29
49585;BME280;35491;49.142;9.210;2023-04-08T02:31:19;100203.03;;;8.63;74.90
49585;BME280;35491;49.142;9.210;2023-04-08T02:32:21;100205.00;;;8.61;75.31
49585;BME280;35491;49.142;9.210;2023-04-08T02:33:31;100206.69;;;8.62;75.28
49585;BME280;35491;49.142;9.210;2023-04-08T02:34:34;100207.66;;;8.61;75.61
49585;BME280;35491;49.142;9.210;2023-04-08T02:35:45;100209.63;;;8.58;75.52
49585;BME280;35491;49.142;9.210;2023-04-08T02:36:47;100211.44;;;8.58;75.27
49585;BME280;35491;49.142;9.210;2023-04-08T02:37:53;100208.66;;;8.60;75.44
49585;BME280;35491;49.142;9.210;2023-04-08T02:38:56;100203.03;;;8.63;75.10
49585;BME280;35491;49.142;9.210;2023-04-08T02:39:59;100208.38;;;8.63;75.30
49585;BME280;35491;49.142;9.210;2023-04-08T02:41:01;100210.06;;;8.64;75.16
49585;BME280;35491;49.142;9.210;2023-04-08T02:42:04;100205.72;;;8.63;75.34
49585;BME280;35491;49.142;9.210;2023-04-08T02:43:08;100207.25;;;8.65;74.77
49585;BME280;35491;49.142;9.210;2023-04-08T02:44:15;100203.03;;;8.63;75.01
49585;BME280;35491;49.142;9.210;2023-04-08T02:45:16;100207.94;;;8.57;75.39
49585;BME280;35491;49.142;9.210;2023-04-08T02:46:20;100209.63;;;8.58;75.24
49585;BME280;35491;49.142;9.210;2023-04-08T02:47:22;100211.81;;;8.53;75.68
49585;BME280;35491;49.142;9.210;2023-04-08T02:48:26;100212.66;;;8.54;75.31
49585;BME280;35491;49.142;9.210;2023-04-08T02:49:27;100210.59;;;8.46;76.21
49585;BME280;35491;49.142;9.210;2023-04-08T02:50:31;100213.88;;;8.50;75.50
49585;BME280;35491;49.142;9.210;2023-04-08T02:51:32;100211.09;;;8.51;75.28
49585;BME280;35491;49.142;9.210;2023-04-08T02:52:36;100211.56;;;8.45;75.71
49585;BME280;35491;49.142;9.210;2023-04-08T02:53:37;100221.50;;;8.43;76.15
49585;BME280;35491;49.142;9.210;2023-04-08T02:54:40;100220.09;;;8.39;75.81
49585;BME280;35491;49.142;9.210;2023-04-08T02:55:42;100217.66;;;8.36;76.47
49585;BME280;35491;49.142;9.210;2023-04-08T02:56:45;100213.16;;;8.36;76.01
49585;BME280;35491;49.142;9.210;2023-04-08T02:57:47;100215.25;;;8.33;76.51
49585;BME280;35491;49.142;9.210;2023-04-08T02:58:51;100207.84;;;8.36;75.91
49585;BME280;35491;49.142;9.210;2023-04-08T02:59:54;100218.50;;;8.36;75.85
49585;BME280;35491;49.142;9.210;2023-04-08T03:00:58;100223.00;;;8.36;75.95
49585;BME280;35491;49.142;9.210;2023-04-08T03:01:59;100216.81;;;8.35;75.82
49585;BME280;35491;49.142;9.210;2023-04-08T03:03:03;100221.66;;;8.30;76.28
49585;BME280;35491;49.142;9.210;2023-04-08T03:04:04;100219.13;;;8.28;76.20
49585;BME280;35491;49.142;9.210;2023-04-08T03:05:08;100221.81;;;8.28;76.39
49585;BME280;35491;49.142;9.210;2023-04-08T03:06:09;100225.44;;;8.27;76.25
49585;BME280;35491;49.142;9.210;2023-04-08T03:07:13;100226.41;;;8.26;76.15
49585;BME280;35491;49.142;9.210;2023-04-08T03:08:14;100229.06;;;8.26;76.05
49585;BME280;35491;49.142;9.210;2023-04-08T03:09:18;100222.78;;;8.27;75.96
49585;BME280;35491;49.142;9.210;2023-04-08T03:10:19;100218.19;;;8.30;75.96
49585;BME280;35491;49.142;9.210;2023-04-08T03:11:23;100220.94;;;8.28;75.79
49585;BME280;35491;49.142;9.210;2023-04-08T03:12:24;100220.94;;;8.28;75.85
49585;BME280;35491;49.142;9.210;2023-04-08T03:13:29;100218.88;;;8.32;75.73
49585;BME280;35491;49.142;9.210;2023-04-08T03:14:31;100218.75;;;8.33;75.48
49585;BME280;35491;49.142;9.210;2023-04-08T03:15:37;100222.53;;;8.31;76.04
49585;BME280;35491;49.142;9.210;2023-04-08T03:16:40;100220.69;;;8.31;75.62
49585;BME280;35491;49.142;9.210;2023-04-08T03:17:44;100222.53;;;8.31;75.79
49585;BME280;35491;49.142;9.210;2023-04-08T03:18:45;100216.22;;;8.32;75.62
49585;BME280;35491;49.142;9.210;2023-04-08T03:19:49;100218.19;;;8.30;75.76
49585;BME280;35491;49.142;9.210;2023-04-08T03:20:52;100214.53;;;8.31;75.83
49585;BME280;35491;49.142;9.210;2023-04-08T03:21:56;100220.56;;;8.33;75.71
49585;BME280;35491;49.142;9.210;2023-04-08T03:22:58;100217.69;;;8.24;76.34
49585;BME280;35491;49.142;9.210;2023-04-08T03:24:01;100219.03;;;8.19;76.63
49585;BME280;35491;49.142;9.210;2023-04-08T03:25:03;100216.13;;;8.22;76.46
49585;BME280;35491;49.142;9.210;2023-04-08T03:26:07;100216.72;;;8.25;75.98
49585;BME280;35491;49.142;9.210;2023-04-08T03:27:08;100221.31;;;8.23;76.24
49585;BME280;35491;49.142;9.210;2023-04-08T03:28:18;100217.81;;;8.23;76.28
49585;BME280;35491;49.142;9.210;2023-04-08T03:29:19;100219.53;;;8.24;75.93
49585;BME280;35491;49.142;9.210;2023-04-08T03:30:23;100213.22;;;8.25;75.82
49585;BME280;35491;49.142;9.210;2023-04-08T03:31:27;100220.34;;;8.24;75.95
49585;BME280;35491;49.142;9.210;2023-04-08T03:32:31;100219.53;;;8.24;75.95
49585;BME280;35491;49.142;9.210;2023-04-08T03:33:38;100221.22;;;8.25;75.74
49585;BME280;35491;49.142;9.210;2023-04-08T03:34:42;100216.00;;;8.23;75.56
49585;BME280;35491;49.142;9.210;2023-04-08T03:35:46;100223.38;;;8.20;76.10
49585;BME280;35491;49.142;9.210;2023-04-08T03:36:50;100222.81;;;8.16;76.17
49585;BME280;35491;49.142;9.210;2023-04-08T03:38:58;100222.94;;;8.15;76.39
49585;BME280;35491;49.142;9.210;2023-04-08T03:40:03;100220.13;;;8.16;76.25
49585;BME280;35491;49.142;9.210;2023-04-08T03:41:05;100223.66;;;8.17;75.97
49585;BME280;35491;49.142;9.210;2023-04-08T03:42:09;100222.06;;;8.14;76.52
49585;BME280;35491;49.142;9.210;2023-04-08T03:43:10;100219.69;;;8.11;76.24
49585;BME280;35491;49.142;9.210;2023-04-08T03:44:15;100221.63;;;8.09;76.32
49585;BME280;35491;49.142;9.210;2023-04-08T03:45:16;100222.13;;;8.03;76.95
49585;BME280;35491;49.142;9.210;2023-04-08T03:46:21;100220.44;;;8.02;76.73
49585;BME280;35491;49.142;9.210;2023-04-08T03:47:25;100219.81;;;7.98;76.81
49585;BME280;35491;49.142;9.210;2023-04-08T03:48:30;100222.59;;;7.96;77.06
49585;BME280;35491;49.142;9.210;2023-04-08T03:49:31;100224.53;;;7.94;76.75
49585;BME280;35491;49.142;9.210;2023-04-08T03:50:36;100222.72;;;7.95;76.94
49585;BME280;35491;49.142;9.210;2023-04-08T03:51:37;100217.53;;;7.93;76.66
49585;BME280;35491;49.142;9.210;2023-04-08T03:52:41;100217.53;;;7.93;76.67
49585;BME280;35491;49.142;9.210;2023-04-08T03:53:42;100220.44;;;7.90;77.27
49585;BME280;35491;49.142;9.210;2023-04-08T03:54:47;100219.56;;;7.90;77.58
49585;BME280;35491;49.142;9.210;2023-04-08T03:55:50;100217.03;;;7.88;77.20
49585;BME280;35491;49.142;9.210;2023-04-08T03:56:54;100226.00;;;7.87;77.04
49585;BME280;35491;49.142;9.210;2023-04-08T03:57:55;100218.88;;;7.88;77.10
49585;BME280;35491;49.142;9.210;2023-04-08T03:58:59;100222.59;;;7.85;77.61
49585;BME280;35491;49.142;9.210;2023-04-08T04:00:02;100227.22;;;7.83;77.56
49585;BME280;35491;49.142;9.210;2023-04-08T04:01:06;100223.56;;;7.84;77.48
49585;BME280;35491;49.142;9.210;2023-04-08T04:02:07;100226.38;;;7.83;77.58
49585;BME280;35491;49.142;9.210;2023-04-08T04:03:14;100223.84;;;7.81;77.91
49585;BME280;35491;49.142;9.210;2023-04-08T04:04:16;100222.97;;;7.80;77.52
49585;BME280;35491;49.142;9.210;2023-04-08T04:05:21;100228.19;;;7.82;77.45
49585;BME280;35491;49.142;9.210;2023-04-08T04:06:27;100223.84;;;7.81;77.49
49585;BME280;35491;49.142;9.210;2023-04-08T04:07:33;100230.84;;;7.82;77.68
49585;BME280;35491;49.142;9.210;2023-04-08T04:08:34;100224.56;;;7.83;77.56
49585;BME280;35491;49.142;9.210;2023-04-08T04:09:39;100226.97;;;7.86;77.03
49585;BME280;35491;49.142;9.210;2023-04-08T04:10:40;100221.91;;;7.83;77.51
49585;BME280;35491;49.142;9.210;2023-04-08T04:11:50;100230.59;;;7.85;77.43
49585;BME280;35491;49.142;9.210;2023-04-08T04:12:51;100223.56;;;7.84;77.35
49585;BME280;35491;49.142;9.210;2023-04-08T04:13:56;100228.06;;;7.84;77.52
49585;BME280;35491;49.142;9.210;2023-04-08T04:14:57;100232.78;;;7.80;77.79
49585;BME280;35491;49.142;9.210;2023-04-08T04:16:01;100231.09;;;7.79;77.94
49585;BME280;35491;49.142;9.210;2023-04-08T04:17:03;100234.72;;;7.78;77.78
49585;BME280;35491;49.142;9.210;2023-04-08T04:18:07;100233.63;;;7.80;77.70
49585;BME280;35491;49.142;9.210;2023-04-08T04:19:11;100238.84;;;7.71;78.41
49585;BME280;35491;49.142;9.210;2023-04-08T04:20:19;100244.63;;;7.76;78.27
49585;BME280;35491;49.142;9.210;2023-04-08T04:21:25;100243.94;;;7.74;77.96
49585;BME280;35491;49.142;9.210;2023-04-08T04:22:36;100232.41;;;7.73;78.29
49585;BME280;35491;49.142;9.210;2023-04-08T04:23:40;100243.19;;;7.72;78.40
49585;BME280;35491;49.142;9.210;2023-04-08T04:24:47;100238.84;;;7.71;78.32
49585;BME280;35491;49.142;9.210;2023-04-08T04:25:48;100241.50;;;7.71;78.07
49585;BME280;35491;49.142;9.210;2023-04-08T04:26:52;100243.94;;;7.74;77.87
49585;BME280;35491;49.142;9.210;2023-04-08T04:27:55;100250.69;;;7.78;77.81
49585;BME280;35491;49.142;9.210;2023-04-08T04:28:58;100239.06;;;7.79;77.71
49585;BME280;35491;49.142;9.210;2023-04-08T04:30:01;100242.34;;;7.83;77.63
49585;BME280;35491;49.142;9.210;2023-04-08T04:31:05;100236.88;;;7.84;77.54
49585;BME280;35491;49.142;9.210;2023-04-08T04:32:08;100240.53;;;7.83;77.48
49585;BME280;35491;49.142;9.210;2023-04-08T04:33:12;100238.09;;;7.80;77.96
49585;BME280;35491;49.142;9.210;2023-04-08T04:34:16;100238.94;;;7.80;77.62
49585;BME280;35491;49.142;9.210;2023-04-08T04:35:20;100238.34;;;7.77;77.72
49585;BME280;35491;49.142;9.210;2023-04-08T04:36:21;100242.09;;;7.74;77.55
49585;BME280;35491;49.142;9.210;2023-04-08T04:37:25;100238.84;;;7.71;78.17
49585;BME280;35491;49.142;9.210;2023-04-08T04:38:27;100241.63;;;7.69;78.02
49585;BME280;35491;49.142;9.210;2023-04-08T04:39:31;100248.88;;;7.67;78.35
49585;BME280;35491;49.142;9.210;2023-04-08T04:40:32;100251.41;;;7.69;78.33
49585;BME280;35491;49.142;9.210;2023-04-08T04:41:36;100246.09;;;7.69;78.12
49585;BME280;35491;49.142;9.210;2023-04-08T04:42:40;100248.75;;;7.69;78.40
49585;BME280;35491;49.142;9.210;2023-04-08T04:43:44;100249.72;;;7.68;78.94
49585;BME280;35491;49.142;9.210;2023-04-08T04:44:45;100254.06;;;7.69;78.47
49585;BME280;35491;49.142;9.210;2023-04-08T04:45:49;100250.44;;;7.70;78.11
49585;BME280;35491;49.142;9.210;2023-04-08T04:46:50;100249.34;;;7.61;79.04
49585;BME280;35491;49.142;9.210;2023-04-08T04:47:54;100247.91;;;7.45;79.80
49585;BME280;35491;49.142;9.210;2023-04-08T04:48:55;100256.47;;;7.38;80.32
49585;BME280;35491;49.142;9.210;2023-04-08T04:50:02;100256.72;;;7.34;80.81
49585;BME280;35491;49.142;9.210;2023-04-08T04:51:03;100252.59;;;7.30;81.31
49585;BME280;35491;49.142;9.210;2023-04-08T04:52:07;100245.19;;;7.23;82.08
49585;BME280;35491;49.142;9.210;2023-04-08T04:53:08;100253.19;;;7.23;81.84
49585;BME280;35491;49.142;9.210;2023-04-08T04:54:12;100248.59;;;7.25;81.82
49585;BME280;35491;49.142;9.210;2023-04-08T04:55:14;100247.28;;;7.30;81.14
49585;BME280;35491;49.142;9.210;2023-04-08T04:56:17;100251.41;;;7.34;81.03
49585;BME280;35491;49.142;9.210;2023-04-08T04:57:21;100253.09;;;7.36;81.09
49585;BME280;35491;49.142;9.210;2023-04-08T04:58:23;100247.66;;;7.37;81.16
49585;BME280;35491;49.142;9.210;2023-04-08T04:59:27;100254.81;;;7.37;80.98
49585;BME280;35491;49.142;9.210;2023-04-08T05:00:29;100256.47;;;7.38;81.20
49585;BME280;35491;49.142;9.210;2023-04-08T05:01:33;100253.81;;;7.38;81.05
49585;BME280;35491;49.142;9.210;2023-04-08T05:02:35;100263.25;;;7.42;80.69
49585;BME280;35491;49.142;9.210;2023-04-08T05:03:39;100262.53;;;7.40;80.97
49585;BME280;35491;49.142;9.210;2023-04-08T05:04:40;100259.25;;;7.36;81.10
49585;BME280;35491;49.142;9.210;2023-04-08T05:05:49;100264.56;;;7.36;81.08
49585;BME280;35491;49.142;9.210;2023-04-08T05:06:50;100264.69;;;7.34;81.18
49585;BME280;35491;49.142;9.210;2023-04-08T05:07:55;100266.75;;;7.31;81.16
49585;BME280;35491;49.142;9.210;2023-04-08T05:08:56;100265.16;;;7.28;81.49
49585;BME280;35491;49.142;9.210;2023-04-08T05:10:00;100267.34;;;7.23;81.78
49585;BME280;35491;49.142;9.210;2023-04-08T05:11:01;100271.09;;;7.21;81.99
49585;BME280;35491;49.142;9.210;2023-04-08T05:12:05;100268.66;;;7.17;82.59
49585;BME280;35491;49.142;9.210;2023-04-08T05:13:07;100265.88;;;7.19;82.35
49585;BME280;35491;49.142;9.210;2023-04-08T05:14:13;100276.28;;;7.22;82.32
49585;BME280;35491;49.142;9.210;2023-04-08T05:15:15;100276.88;;;7.26;81.75
49585;BME280;35491;49.142;9.210;2023-04-08T05:16:19;100273.88;;;7.30;81.26
49585;BME280;35491;49.142;9.210;2023-04-08T05:17:20;100267.38;;;7.34;81.18
49585;BME280;35491;49.142;9.210;2023-04-08T05:18:24;100270.75;;;7.37;81.34
49585;BME280;35491;49.142;9.210;2023-04-08T05:19:25;100271.72;;;7.36;81.34
49585;BME280;35491;49.142;9.210;2023-04-08T05:20:31;100272.41;;;7.38;81.30
49585;BME280;35491;49.142;9.210;2023-04-08T05:21:34;100268.56;;;7.42;80.76
49585;BME280;35491;49.142;9.210;2023-04-08T05:22:38;100274.84;;;7.41;80.87
49585;BME280;35491;49.142;9.210;2023-04-08T05:23:40;100279.81;;;7.45;80.59
49585;BME280;35491;49.142;9.210;2023-04-08T05:24:43;100276.06;;;7.48;80.53
49585;BME280;35491;49.142;9.210;2023-04-08T05:25:45;100279.34;;;7.52;80.18
49585;BME280;35491;49.142;9.210;2023-04-08T05:26:49;100281.91;;;7.53;80.27
49585;BME280;35491;49.142;9.210;2023-04-08T05:27:52;100275.94;;;7.61;79.79
49585;BME280;35491;49.142;9.210;2023-04-08T05:28:57;100280.31;;;7.62;79.66
49585;BME280;35491;49.142;9.210;2023-04-08T05:29:58;100278.50;;;7.62;79.74
49585;BME280;35491;49.142;9.210;2023-04-08T05:31:02;100284.44;;;7.66;79.66
49585;BME280;35491;49.142;9.210;2023-04-08T05:32:03;100281.66;;;7.68;79.41
49585;BME280;35491;49.142;9.210;2023-04-08T05:33:07;100285.19;;;7.68;79.25
49585;BME280;35491;49.142;9.210;2023-04-08T05:34:08;100287.72;;;7.70;79.13
49585;BME280;35491;49.142;9.210;2023-04-08T05:35:12;100280.56;;;7.70;79.30
49585;BME280;35491;49.142;9.210;2023-04-08T05:36:16;100281.41;;;7.71;79.25
49585;BME280;35491;49.142;9.210;2023-04-08T05:37:25;100283.84;;;7.74;79.14
49585;BME280;35491;49.142;9.210;2023-04-08T05:38:26;100289.88;;;7.76;78.76